createdAt,value
2022-11-23T00:01:42.060Z,99869.56
2022-11-23T00:06:45.209Z,99881.09
2022-11-23T00:11:48.333Z,99883.47
2022-11-23T00:16:52.881Z,99874.91
2022-11-23T00:21:56.039Z,99876.41
2022-11-23T00:27:00.323Z,99888.66
2022-11-23T00:32:05.959Z,99879.91
2022-11-23T00:37:09.383Z,99868.44
2022-11-23T00:42:12.575Z,99856.91
2022-11-23T00:47:17.113Z,99862.16
2022-11-23T00:52:20.261Z,99849.00
2022-11-23T00:57:23.427Z,99856.03
2022-11-23T01:02:28.065Z,99844.56
2022-11-23T01:07:31.728Z,99842.88
2022-11-23T01:12:34.966Z,99832.34
2022-11-23T01:17:39.551Z,99813.72
2022-11-23T01:22:43.247Z,99791.75
2022-11-23T01:27:46.434Z,99786.41
2022-11-23T01:32:50.991Z,99790.63
2022-11-23T01:37:54.129Z,99784.59
2022-11-23T01:43:00.382Z,99785.53
2022-11-23T01:48:09.469Z,99785.53
2022-11-23T01:53:12.795Z,99788.91
2022-11-23T01:58:20.431Z,99788.16
2022-11-23T02:03:25.474Z,99786.41
2022-11-23T02:08:29.606Z,99773.03
2022-11-23T02:13:33.186Z,99778.03
2022-11-23T02:18:39.922Z,99776.31
2022-11-23T02:23:51.356Z,99770.13
2022-11-23T02:29:01.403Z,99759.50
2022-11-23T02:34:04.705Z,99757.72
2022-11-23T02:39:12.000Z,99755.09
2022-11-23T02:44:35.416Z,99753.41
2022-11-23T02:49:38.731Z,99758.69
2022-11-23T02:54:41.887Z,99742.88
2022-11-23T02:59:46.446Z,99744.56
2022-11-23T03:04:49.589Z,99744.72
2022-11-23T03:09:52.782Z,99739.28
2022-11-23T03:14:57.400Z,99727.91
2022-11-23T03:20:00.623Z,99727.06
2022-11-23T03:25:03.774Z,99732.13
2022-11-23T03:30:10.570Z,99725.94
2022-11-23T03:35:13.966Z,99739.09
2022-11-23T03:40:17.287Z,99740.81
2022-11-23T03:45:21.861Z,99754.91
2022-11-23T03:50:24.988Z,99754.25
2022-11-23T03:55:28.158Z,99752.28
2022-11-23T04:00:32.814Z,99740.81
2022-11-23T04:05:35.711Z,99744.72
2022-11-23T04:10:38.889Z,99742.66
2022-11-23T04:15:43.470Z,99750.94
2022-11-23T04:20:46.591Z,99754.34
2022-11-23T04:25:49.723Z,99756.03
2022-11-23T04:30:54.310Z,99758.47
2022-11-23T04:35:57.422Z,99775.06
2022-11-23T04:41:00.632Z,99769.00
2022-11-23T04:46:05.241Z,99777.84
2022-11-23T04:51:08.779Z,99778.78
2022-11-23T04:56:11.958Z,99778.78
2022-11-23T05:01:16.649Z,99790.38
2022-11-23T05:06:19.576Z,99800.03
2022-11-23T05:11:22.746Z,99806.16
2022-11-23T05:16:27.283Z,99809.47
2022-11-23T05:21:30.438Z,99819.81
2022-11-23T05:26:33.550Z,99830.53
2022-11-23T05:31:38.154Z,99835.78
2022-11-23T05:36:42.495Z,99837.00
2022-11-23T05:41:45.795Z,99851.09
2022-11-23T05:46:50.336Z,99861.72
2022-11-23T05:51:53.525Z,99872.50
2022-11-23T05:56:56.702Z,99901.56
2022-11-23T06:02:01.339Z,99891.03
2022-11-23T06:07:04.323Z,99903.78
2022-11-23T06:12:08.143Z,99905.53
2022-11-23T06:17:12.694Z,99920.78
2022-11-23T06:22:16.470Z,99929.81
2022-11-23T06:27:19.600Z,99944.84
2022-11-23T06:32:24.164Z,99944.34
2022-11-23T06:37:27.359Z,99958.06
2022-11-23T06:42:38.844Z,99981.84
2022-11-23T06:47:44.623Z,99970.47
2022-11-23T06:52:47.758Z,99960.63
2022-11-23T06:57:51.242Z,99959.94
2022-11-23T07:02:56.634Z,99967.75
2022-11-23T07:07:59.842Z,99987.19
2022-11-23T07:13:05.907Z,99981.00
2022-11-23T07:18:13.167Z,99995.22
2022-11-23T07:23:16.310Z,100026.13
2022-11-23T07:28:20.014Z,100034.25
2022-11-23T07:33:24.605Z,100041.13
2022-11-23T07:38:27.763Z,100057.78
2022-11-23T07:43:30.985Z,100073.72
2022-11-23T07:48:36.699Z,100094.16
2022-11-23T07:53:40.016Z,100095.22
2022-11-23T07:58:43.178Z,100095.06
2022-11-23T08:03:48.190Z,100108.38
2022-11-23T08:08:51.722Z,100113.75
2022-11-23T08:13:55.065Z,100121.03
2022-11-23T08:18:59.665Z,100134.25
2022-11-23T08:24:02.919Z,100150.81
2022-11-23T08:29:06.170Z,100148.84
2022-11-23T08:34:10.708Z,100152.75
2022-11-23T08:39:14.898Z,100151.03
2022-11-23T08:44:18.123Z,100146.94
2022-11-23T08:49:22.718Z,100158.47
2022-11-23T08:54:25.868Z,100166.97
2022-11-23T08:59:29.024Z,100168.75
2022-11-23T09:04:33.834Z,100170.94
2022-11-23T09:09:37.292Z,100178.34
2022-11-23T09:14:40.496Z,100182.53
2022-11-23T09:19:45.044Z,100183.63
2022-11-23T09:24:48.181Z,100179.06
2022-11-23T09:29:51.377Z,100158.38
2022-11-23T09:34:55.964Z,100166.28
2022-11-23T09:39:59.164Z,100175.88
2022-11-23T09:45:15.629Z,100173.00
2022-11-23T09:50:25.867Z,100183.22
2022-11-23T09:55:37.832Z,100185.50
2022-11-23T10:00:47.495Z,100180.59
2022-11-23T10:06:02.145Z,100192.13
2022-11-23T10:11:23.242Z,100195.53
2022-11-23T10:16:36.706Z,100207.00
2022-11-23T10:21:52.779Z,100197.53
2022-11-23T10:26:55.934Z,100224.41
2022-11-23T10:32:00.944Z,100225.72
2022-11-23T10:37:09.567Z,100233.94
2022-11-23T10:42:23.206Z,100216.50
2022-11-23T10:47:38.812Z,100205.72
2022-11-23T10:52:52.401Z,100222.09
2022-11-23T10:57:56.065Z,100224.59
2022-11-23T11:03:00.305Z,100236.66
2022-11-23T11:08:15.091Z,100226.28
2022-11-23T11:13:26.772Z,100235.81
2022-11-23T11:18:32.867Z,100232.91
2022-11-23T11:23:42.411Z,100240.59
2022-11-23T11:28:50.278Z,100237.72
2022-11-23T11:34:00.114Z,100241.09
2022-11-23T11:39:18.669Z,100228.16
2022-11-23T11:44:25.533Z,100220.53
2022-11-23T11:49:34.406Z,100215.91
2022-11-23T11:54:45.207Z,100203.78
2022-11-23T11:59:50.496Z,100210.22
2022-11-23T12:05:06.704Z,100214.91
2022-11-23T12:10:17.298Z,100200.09
2022-11-23T12:20:57.189Z,100199.22
2022-11-23T12:26:15.699Z,100191.50
2022-11-23T12:31:31.523Z,100187.75
2022-11-23T12:37:09.389Z,100185.66
2022-11-23T12:42:21.754Z,100186.81
2022-11-23T12:47:42.978Z,100174.78
2022-11-23T12:53:01.131Z,100167.06
2022-11-23T12:58:13.187Z,100169.63
2022-11-23T13:04:13.062Z,100162.44
2022-11-23T13:09:39.382Z,100150.94
2022-11-23T13:14:50.850Z,100147.22
2022-11-23T13:20:14.200Z,100144.13
2022-11-23T13:25:24.404Z,100142.53
2022-11-23T13:30:51.956Z,100139.28
2022-11-23T13:36:07.649Z,100146.28
2022-11-23T13:41:57.874Z,100138.94
2022-11-23T13:47:05.398Z,100156.06
2022-11-23T13:52:29.072Z,100150.13
2022-11-23T13:57:32.825Z,100148.38
2022-11-23T14:02:37.607Z,100162.31
2022-11-23T14:07:46.403Z,100164.56
2022-11-23T14:12:53.433Z,100167.41
2022-11-23T14:18:20.144Z,100150.75
2022-11-23T14:23:46.456Z,100143.66
2022-11-23T14:29:07.696Z,100155.09
2022-11-23T14:34:22.200Z,100140.09
2022-11-23T14:40:02.396Z,100136.91
2022-11-23T14:45:07.646Z,100154.13
2022-11-23T14:50:25.821Z,100154.66
2022-11-23T14:55:33.146Z,100147.91
2022-11-23T15:00:40.491Z,100144.34
2022-11-23T15:05:48.746Z,100145.66
2022-11-23T15:11:01.361Z,100138.84
2022-11-23T15:16:06.393Z,100143.19
2022-11-23T15:21:27.231Z,100145.47
2022-11-23T15:26:48.024Z,100150.09
2022-11-23T15:32:14.227Z,100153.38
2022-11-23T15:37:18.268Z,100155.78
2022-11-23T15:42:24.032Z,100159.50
2022-11-23T15:47:31.135Z,100170.91
2022-11-23T15:52:37.990Z,100172.75
2022-11-23T15:57:42.775Z,100181.34
2022-11-23T16:02:46.095Z,100186.56
2022-11-23T16:07:56.462Z,100191.94
2022-11-23T16:13:01.282Z,100209.44
2022-11-23T16:18:05.688Z,100211.28
2022-11-23T16:23:18.851Z,100197.44
2022-11-23T16:28:28.844Z,100199.38
2022-11-23T16:33:32.124Z,100207.84
2022-11-23T16:38:36.691Z,100208.50
2022-11-23T16:43:39.884Z,100209.28
2022-11-23T16:48:43.689Z,100237.81
2022-11-23T16:59:18.242Z,100233.72
2022-11-23T17:04:21.434Z,100234.41
2022-11-23T17:09:26.140Z,100228.38
2022-11-23T17:14:29.939Z,100248.94
2022-11-23T17:19:33.423Z,100257.16
2022-11-23T17:24:38.155Z,100260.41
2022-11-23T17:29:42.339Z,100263.44
2022-11-23T17:34:46.029Z,100263.06
2022-11-23T17:39:51.793Z,100258.88
2022-11-23T17:44:55.378Z,100255.59
2022-11-23T17:49:59.708Z,100249.72
2022-11-23T17:55:04.475Z,100249.53
2022-11-23T18:00:09.221Z,100255.13
2022-11-23T18:05:16.548Z,100248.00
2022-11-23T18:10:25.669Z,100246.44
2022-11-23T18:15:30.453Z,100241.47
2022-11-23T18:20:33.674Z,100245.03
2022-11-23T18:25:38.258Z,100266.19
2022-11-23T18:30:41.447Z,100270.91
2022-11-23T18:35:44.619Z,100272.97
2022-11-23T18:40:49.173Z,100274.44
2022-11-23T18:45:52.878Z,100265.28
2022-11-23T18:50:56.208Z,100274.31
2022-11-23T18:56:05.543Z,100273.28
2022-11-23T19:01:12.376Z,100296.16
2022-11-23T19:06:17.227Z,100308.53
2022-11-23T19:11:23.650Z,100331.69
2022-11-23T19:16:28.945Z,100305.63
2022-11-23T19:21:33.479Z,100319.78
2022-11-23T19:26:38.307Z,100320.16
2022-11-23T19:31:41.281Z,100308.88
2022-11-23T19:36:44.453Z,100300.19
2022-11-23T19:41:49.266Z,100315.25
2022-11-23T19:46:52.171Z,100330.91
2022-11-23T19:51:56.491Z,100335.66
2022-11-23T19:57:01.223Z,100363.50
2022-11-23T20:02:04.441Z,100369.34
2022-11-23T20:07:07.687Z,100367.63
2022-11-23T20:12:12.246Z,100368.34
2022-11-23T20:17:15.697Z,100367.50
2022-11-23T20:22:18.889Z,100369.53
2022-11-23T20:27:23.442Z,100380.38
2022-11-23T20:32:26.598Z,100377.53
2022-11-23T20:37:29.737Z,100392.09
2022-11-23T20:42:34.288Z,100392.66
2022-11-23T20:47:37.640Z,100401.75
2022-11-23T20:52:40.873Z,100400.88
2022-11-23T20:57:45.432Z,100394.72
2022-11-23T21:02:50.985Z,100381.69
2022-11-23T21:07:54.213Z,100365.34
2022-11-23T21:13:16.023Z,100358.25
2022-11-23T21:18:19.178Z,100362.66
2022-11-23T21:23:22.324Z,100360.03
2022-11-23T21:28:27.033Z,100369.59
2022-11-23T21:33:30.869Z,100381.47
2022-11-23T21:38:38.638Z,100363.56
2022-11-23T21:43:43.513Z,100366.19
2022-11-23T21:48:46.381Z,100359.31
2022-11-23T21:53:49.594Z,100371.59
2022-11-23T21:58:54.475Z,100382.22
2022-11-23T22:03:58.042Z,100385.31
2022-11-23T22:09:01.374Z,100396.00
2022-11-23T22:14:09.167Z,100405.44
2022-11-23T22:19:13.364Z,100379.34
2022-11-23T22:24:18.207Z,100374.53
2022-11-23T22:29:22.951Z,100375.44
2022-11-23T22:34:26.838Z,100378.53
2022-11-23T22:39:30.191Z,100372.84
2022-11-23T22:44:35.441Z,100353.34
2022-11-23T22:49:38.821Z,100350.59
2022-11-23T22:54:42.121Z,100354.91
2022-11-23T22:59:46.826Z,100342.59
2022-11-23T23:04:50.238Z,100356.63
2022-11-23T23:09:53.606Z,100347.97
2022-11-23T23:14:58.333Z,100355.16
2022-11-23T23:20:01.976Z,100323.69
2022-11-23T23:25:07.857Z,100323.81
2022-11-23T23:30:13.565Z,100307.97
2022-11-23T23:35:17.015Z,100295.44
2022-11-23T23:40:20.323Z,100294.38
2022-11-23T23:45:25.103Z,100280.25
2022-11-23T23:50:28.421Z,100286.34
2022-11-23T23:55:31.718Z,100301.97
